createdAt,value
2022-12-31T00:00:00.124Z,4.5
2022-12-31T00:05:00.135Z,5.2
2022-12-31T00:10:00.158Z,4.1
2022-12-31T00:15:00.098Z,3.8
2022-12-31T00:20:00.124Z,3.8
2022-12-31T00:25:00.112Z,3
2022-12-31T00:30:04.373Z,3
2022-12-31T00:35:00.125Z,5.3
2022-12-31T00:40:00.155Z,2.3
2022-12-31T00:45:00.129Z,4
2022-12-31T00:50:00.141Z,2.3
2022-12-31T00:55:00.123Z,2.5
2022-12-31T01:00:00.143Z,2.5
2022-12-31T01:05:00.136Z,3.2
2022-12-31T01:10:00.162Z,3.2
2022-12-31T01:15:00.120Z,3.7
2022-12-31T01:20:00.127Z,3.2
2022-12-31T01:25:00.141Z,3.1
2022-12-31T01:30:00.108Z,3.1
2022-12-31T01:35:00.138Z,3.1
2022-12-31T01:40:00.138Z,3.1
2022-12-31T01:45:00.108Z,1.9
2022-12-31T01:50:00.111Z,3.1
2022-12-31T01:55:00.124Z,2.1
2022-12-31T02:00:00.133Z,2.1
2022-12-31T02:05:00.155Z,2.6
2022-12-31T02:10:00.159Z,2.2
2022-12-31T02:15:00.115Z,1.6
2022-12-31T02:20:00.113Z,1.2
2022-12-31T02:25:00.155Z,1.5
2022-12-31T02:30:00.099Z,1.5
2022-12-31T02:35:00.138Z,3.6
2022-12-31T02:40:00.103Z,1.5
2022-12-31T02:45:00.129Z,2
2022-12-31T02:50:00.154Z,1.4
2022-12-31T02:55:00.148Z,1.7
2022-12-31T03:00:00.104Z,1.7
2022-12-31T03:05:00.138Z,2
2022-12-31T03:10:00.140Z,1.3
2022-12-31T03:15:00.128Z,1.6
2022-12-31T03:20:00.157Z,2
2022-12-31T03:25:00.128Z,4.7
2022-12-31T03:30:00.107Z,4.7
2022-12-31T03:35:00.132Z,2.9
2022-12-31T03:40:00.158Z,1.4
2022-12-31T03:45:00.149Z,2.2
2022-12-31T03:50:00.147Z,3.6
2022-12-31T03:55:00.138Z,2
2022-12-31T04:00:00.095Z,2
2022-12-31T04:05:00.126Z,3.5
2022-12-31T04:10:00.187Z,1.4
2022-12-31T04:15:00.126Z,1.6
2022-12-31T04:20:00.128Z,2
2022-12-31T04:25:00.100Z,1.3
2022-12-31T04:30:00.168Z,1.3
2022-12-31T04:35:00.127Z,3.2
2022-12-31T04:40:05.307Z,1.3
2022-12-31T04:45:00.137Z,1.4
2022-12-31T04:50:00.130Z,3
2022-12-31T04:55:00.110Z,2.2
2022-12-31T05:00:00.089Z,2.2
2022-12-31T05:05:00.124Z,1.9
2022-12-31T05:10:00.167Z,1.2
2022-12-31T05:15:00.120Z,2.3
2022-12-31T05:20:00.128Z,1.8
2022-12-31T05:25:00.151Z,3.7
2022-12-31T05:30:00.134Z,3.7
2022-12-31T05:35:00.339Z,2.9
2022-12-31T05:40:00.114Z,3.5
2022-12-31T05:45:00.124Z,2.2
2022-12-31T05:50:00.142Z,2.1
2022-12-31T05:55:00.114Z,1.7
2022-12-31T06:00:00.116Z,1.7
2022-12-31T06:05:00.117Z,1.9
2022-12-31T06:10:00.127Z,1.9
2022-12-31T06:15:00.117Z,3
2022-12-31T06:20:00.120Z,2.4
2022-12-31T06:25:00.140Z,2.7
2022-12-31T06:30:00.122Z,2.7
2022-12-31T06:35:00.111Z,2.6
2022-12-31T06:40:00.103Z,1.2
2022-12-31T06:45:00.120Z,3
2022-12-31T06:50:00.169Z,3.2
2022-12-31T06:55:00.098Z,1.8
2022-12-31T07:00:00.115Z,1.8
2022-12-31T07:05:00.162Z,1
2022-12-31T07:10:00.181Z,1.3
2022-12-31T07:15:00.103Z,2
2022-12-31T07:20:00.165Z,1.5
2022-12-31T07:25:00.121Z,2.6
2022-12-31T07:30:00.141Z,2.6
2022-12-31T07:35:00.196Z,2.1
2022-12-31T07:40:00.112Z,4.5
2022-12-31T07:45:00.130Z,1.5
2022-12-31T07:50:00.122Z,1.9
2022-12-31T07:55:00.119Z,2.3
2022-12-31T08:00:00.125Z,2.3
2022-12-31T08:05:00.121Z,1.3
2022-12-31T08:10:00.130Z,2.3
2022-12-31T08:15:00.139Z,1.5
2022-12-31T08:20:00.157Z,1.2
2022-12-31T08:25:00.121Z,3.4
2022-12-31T08:30:00.132Z,3.4
2022-12-31T08:35:00.102Z,2.5
2022-12-31T08:40:00.136Z,1.7
2022-12-31T08:45:00.112Z,2.4
2022-12-31T08:50:00.133Z,2.2
2022-12-31T08:55:00.116Z,1.1
2022-12-31T09:00:00.100Z,1.1
2022-12-31T09:05:00.163Z,1.3
2022-12-31T09:10:00.134Z,1.4
2022-12-31T09:15:00.111Z,2.9
2022-12-31T09:20:00.166Z,2.1
2022-12-31T09:25:00.130Z,1.7
2022-12-31T09:30:00.123Z,1.7
2022-12-31T09:35:00.124Z,2.8
2022-12-31T09:40:00.156Z,2.8
2022-12-31T09:45:00.110Z,5.7
2022-12-31T09:50:00.145Z,2.3
2022-12-31T09:55:00.158Z,2.8
2022-12-31T10:00:00.176Z,2.8
2022-12-31T10:05:00.125Z,2
2022-12-31T10:10:00.147Z,1.8
2022-12-31T10:15:00.133Z,1.6
2022-12-31T10:20:00.142Z,2.9
2022-12-31T10:25:00.139Z,2.9
2022-12-31T10:30:00.096Z,2.9
2022-12-31T10:35:00.134Z,1.6
2022-12-31T10:40:00.140Z,2.4
2022-12-31T10:45:00.114Z,2.4
2022-12-31T10:50:00.176Z,2.1
2022-12-31T10:55:00.108Z,1.9
2022-12-31T11:00:00.150Z,1.9
2022-12-31T11:05:00.147Z,1.8
2022-12-31T11:10:00.136Z,1.7
2022-12-31T11:15:00.116Z,1.9
2022-12-31T11:20:00.124Z,1.4
2022-12-31T11:25:00.116Z,2.5
2022-12-31T11:30:00.115Z,2.5
2022-12-31T11:35:00.149Z,2.5
2022-12-31T11:40:00.112Z,2.6
2022-12-31T11:45:00.148Z,2.4
2022-12-31T11:50:00.151Z,2.8
2022-12-31T11:55:00.107Z,1.3
2022-12-31T12:00:00.118Z,1.3
2022-12-31T12:05:02.632Z,3.7
2022-12-31T12:10:00.104Z,1.5
2022-12-31T12:15:00.099Z,1.2
2022-12-31T12:20:00.128Z,1.9
2022-12-31T12:25:00.167Z,2.1
2022-12-31T12:30:00.117Z,2.1
2022-12-31T12:35:00.181Z,2
2022-12-31T12:40:00.137Z,2.2
2022-12-31T12:45:00.114Z,1.5
2022-12-31T12:50:00.170Z,2.6
2022-12-31T12:55:00.108Z,2.3
2022-12-31T13:00:00.094Z,2.3
2022-12-31T13:05:00.147Z,2
2022-12-31T13:10:00.128Z,2.4
2022-12-31T13:15:00.122Z,2.3
2022-12-31T13:20:00.121Z,1.6
2022-12-31T13:25:00.156Z,2.5
2022-12-31T13:30:00.101Z,2.5
2022-12-31T13:35:00.115Z,2
2022-12-31T13:40:00.124Z,2.6
2022-12-31T13:45:00.137Z,2.1
2022-12-31T13:50:00.127Z,3
2022-12-31T13:55:00.118Z,2.6
2022-12-31T14:00:00.145Z,2.6
2022-12-31T14:05:00.143Z,2
2022-12-31T14:10:00.124Z,2.4
2022-12-31T14:15:00.137Z,1.3
2022-12-31T14:20:05.183Z,1.8
2022-12-31T14:25:00.119Z,1.7
2022-12-31T14:30:00.125Z,1.7
2022-12-31T14:35:00.110Z,1.6
2022-12-31T14:40:00.131Z,1.4
2022-12-31T14:45:00.117Z,1.6
2022-12-31T14:50:00.105Z,1.9
2022-12-31T14:55:00.115Z,1.5
2022-12-31T15:00:00.094Z,1.5
2022-12-31T15:05:00.097Z,2
2022-12-31T15:10:00.097Z,2.3
2022-12-31T15:15:00.127Z,1.7
2022-12-31T15:20:00.116Z,2.3
2022-12-31T15:25:00.160Z,1.2
2022-12-31T15:30:00.115Z,1.2
2022-12-31T15:35:00.117Z,1.6
2022-12-31T15:40:00.178Z,1.9
2022-12-31T15:45:00.132Z,2.1
2022-12-31T15:50:00.237Z,1.7
2022-12-31T15:55:00.119Z,3.9
2022-12-31T16:00:00.094Z,3.9
2022-12-31T16:05:00.126Z,3.7
2022-12-31T16:10:00.164Z,1.8
2022-12-31T16:15:00.128Z,2.2
2022-12-31T16:20:00.115Z,3.9
2022-12-31T16:25:29.463Z,2.2
2022-12-31T16:30:00.195Z,2.2
2022-12-31T16:35:00.111Z,2.4
2022-12-31T16:40:00.149Z,3.2
2022-12-31T16:45:00.150Z,2.8
2022-12-31T16:50:00.096Z,3.3
2022-12-31T16:55:00.129Z,3.3
2022-12-31T17:00:00.096Z,3.3
2022-12-31T17:05:00.109Z,2.6
2022-12-31T17:10:00.117Z,3.4
2022-12-31T17:15:00.116Z,4.1
2022-12-31T17:20:00.116Z,4.6
2022-12-31T17:25:00.130Z,3.6
2022-12-31T17:30:00.155Z,3.6
2022-12-31T17:35:00.129Z,4.2
2022-12-31T17:40:17.319Z,4.2
2022-12-31T17:45:00.116Z,4.5
2022-12-31T17:50:00.122Z,4.6
2022-12-31T17:55:00.116Z,4.6
2022-12-31T18:00:00.123Z,4.6
2022-12-31T18:05:00.113Z,4.8
2022-12-31T18:10:00.134Z,4.1
2022-12-31T18:15:00.124Z,6
2022-12-31T18:20:05.034Z,6.9
2022-12-31T18:25:00.147Z,5.4
2022-12-31T18:30:04.699Z,5.4
2022-12-31T18:35:00.113Z,5.8
2022-12-31T18:40:00.145Z,5.2
2022-12-31T18:45:00.126Z,5.9
2022-12-31T18:50:00.111Z,5.7
2022-12-31T18:55:00.100Z,7.3
2022-12-31T19:00:00.106Z,7.3
2022-12-31T19:05:00.131Z,5
2022-12-31T19:10:00.212Z,6.4
2022-12-31T19:15:00.127Z,5.4
2022-12-31T19:20:00.125Z,6.2
2022-12-31T19:25:00.100Z,5.2
2022-12-31T19:30:00.105Z,5.2
2022-12-31T19:35:00.123Z,6.9
2022-12-31T19:40:00.128Z,4.7
2022-12-31T19:45:00.108Z,7.7
2022-12-31T19:50:00.133Z,6.3
2022-12-31T19:55:00.093Z,6.4
2022-12-31T20:00:00.124Z,6.4
2022-12-31T20:05:00.121Z,6.2
2022-12-31T20:10:00.142Z,5.6
2022-12-31T20:15:00.116Z,5.8
2022-12-31T20:20:00.099Z,4.6
2022-12-31T20:25:00.152Z,3.5
2022-12-31T20:30:00.093Z,3.5
2022-12-31T20:35:00.096Z,5
2022-12-31T20:40:00.103Z,6.3
2022-12-31T20:45:00.137Z,4.9
2022-12-31T20:50:15.469Z,5
2022-12-31T20:55:00.108Z,6.1
2022-12-31T21:00:00.104Z,6.1
2022-12-31T21:05:00.286Z,5.3
2022-12-31T21:10:00.103Z,4.8
2022-12-31T21:15:00.094Z,6.2
2022-12-31T21:20:00.106Z,7.1
2022-12-31T21:25:00.124Z,7.6
2022-12-31T21:35:31.363Z,8
2022-12-31T21:40:00.142Z,6.9
2022-12-31T21:45:00.118Z,7.3
2022-12-31T21:50:00.141Z,7.1
2022-12-31T21:55:00.104Z,7.6
2022-12-31T22:00:24.313Z,7.6
2022-12-31T22:05:02.531Z,8.4
2022-12-31T22:10:00.119Z,6.9
2022-12-31T22:15:13.968Z,7.8
2022-12-31T22:20:25.630Z,10.3
2022-12-31T22:25:00.133Z,6.9
2022-12-31T22:30:00.131Z,6.9
2022-12-31T22:35:00.140Z,8.5
2022-12-31T22:40:00.131Z,9
2022-12-31T22:45:00.126Z,7.2
2022-12-31T22:50:00.102Z,7.1
2022-12-31T22:55:00.119Z,8
2022-12-31T23:00:00.095Z,8
2022-12-31T23:05:15.994Z,11.2
2022-12-31T23:10:00.117Z,12
2022-12-31T23:15:00.121Z,9.5
2022-12-31T23:20:00.090Z,12
2022-12-31T23:25:00.118Z,20.2
2022-12-31T23:30:00.111Z,20.2
2022-12-31T23:35:03.281Z,37
2022-12-31T23:40:00.096Z,51.7
2022-12-31T23:45:00.141Z,69.7
2022-12-31T23:50:00.112Z,76.4
2022-12-31T23:55:00.122Z,97.7
